Aspinwall, PA

3:52 PM EST on March 06, 2015 (GMT -0500)
Arnold Palmer Regional | Change Station
CLOSE
Current Station
Airport
Location: Latrobe,
Elevation: 1184 ft
Nearby Weather Stations

Elev 1184 ft 40.28 °N, 79.40 °W | Updated 57 minutes ago

Partly Cloudy
Partly Cloudy
19 °F
Feels Like 10 °F
N
8
Wind Variable Wind from WSW

Today
High -- | Low -- °F
--% Chance of Precip.
Yesterday
High -- | Low -- °F
Precip. -- in
6:46 AM 6:16 PM
Full, 99% visible
Pressure 30.42 in
Visibility 15.0 miles
Clouds Mostly Cloudy 25000 ft
Windchill 10 °F
Dew Point 9 °F
Humidity 63%
Rainfall 0.00 in
Snow Depth Not available.
UV 2 out of 12
Pollen .30 out of 12
Air Quality Not available.
Flu Activity Not available.
METAR KLBE 061955Z 24007KT 15SM BKN250 M07/M13 A3042

More Conditions Fewer Conditions

Pressure 30.42 in
Visibility 15.0 miles
Clouds Mostly Cloudy 25000 ft
Windchill 10 °F
Dew Point 9 °F
Humidity 63%
Rainfall 0.00 in
Snow Depth Not available.
UV 2 out of 12
Pollen .30 out of 12
Air Quality Not available.
Flu Activity Not available.
METAR KLBE 061955Z 24007KT 15SM BKN250 M07/M13 A3042

More Conditions Fewer Conditions

10-Day Weather Forecast

Almanac

Astronomy

Mar. 06, 2015 Rise Set
Actual Time
Civil Twilight
Nautical Twilight
Astronomical Twilight
Moon
Length of Visible Light
Length of Day
Tomorrow will be .
, % of the Moon is Illuminated

Today's Extremes

State Highs State Lows

Community

WunderPhotos

Upload Photos

1,803,389 photos uploaded!

WunderBlogs® & News

Nearby

Air Quality

  Air Quality AQ Index Pollutant
Not available.

Snow Depth

Station Depth Elevation

Earthquake Activity

City Distance Mag. Time & Date
Minimum magnitude displayed is 2.5.

Coastal Water Temperatures

Place Temperature

Nearby Weather Stations